METAR stanice u blizini

 

LYNI - Nis, Yugoslavia
Distance from station: JZ 40km
Ažurirano: 27/10/2021 02:00
Vedro
Vedro
 Pravac vetra SZ
Vetar: SZ 9 km/h
Temperatura: 1°C
Osećaj hladnoće: -2°C
Tačka rose: -1°C
Vlažnost: 87%
Pritisak: 1025 hPa
Pregled: Vedro
Vidljivost: greater than 10 km
2021/10/27 00:00 LYNI 270000Z 31005KT CAVOK 01/M01 Q1025 NOSIG
LYKV - Kraljevo, Yugoslavia
Distance from station: ZSZ 136km
Ažurirano: 27/10/2021 02:00
Vedro
Vedro
 Pravac vetra calm
Vetar: Tišina
Temperatura: 0°C
Tačka rose: -1°C
Vlažnost: 93%
Pritisak: 1026 hPa
Pregled: Vedro
Vidljivost: greater than 10 km
2021/10/27 00:00 LYKV 270000Z 00000KT CAVOK 00/M01 Q1026 NOSIG
LBSF - Sofia (observato, Bulgaria
Distance from station: JI 138km
Ažurirano: 27/10/2021 02:00
Vedro
Vedro
 Pravac vetra varies
Vetar: varies 4 km/h
Temperatura: 0°C
Tačka rose: 0°C
Vlažnost: 100%
Pritisak: 1025 hPa
Pregled: Vedro
Vidljivost: greater than 10 km
2021/10/27 00:00 LBSF 270000Z VRB02KT CAVOK 00/M00 Q1025 NOSIG
 
BKPR - Prishtina, Yugoslavia
Distance from station: JZ 147km
Ažurirano: 27/10/2021 02:00
Vedro
Vedro
 Pravac vetra varies
Vetar: varies 6 km/h
Temperatura: 1°C
Tačka rose: 0°C
Vlažnost: 93%
Pritisak: 1024 hPa
Pregled: Vedro
Vidljivost: greater than 10 km
2021/10/27 00:00 BKPR 270000Z VRB03KT CAVOK 01/M00 Q1024 NOSIG
LRCV - Craiova, Romania
Distance from station: SI 154km
Ažurirano: 27/10/2021 02:00
Pretežno oblačno
Pretežno oblačno
 Pravac vetra S
Vetar: S 9 km/h
Temperatura: 4°C
Osećaj hladnoće: 2°C
Tačka rose: 1°C
Vlažnost: 81%
Pritisak: 1026 hPa
Oblaci: Pretežno oblačno
Vidljivost: 10 km
Cloud details: Pretežno oblačno 1067 m
2021/10/27 00:00 LRCV 270000Z 01005KT 9999 BKN035 04/01 Q1026
LWSK - Skopje/Petrovac, Macedonia
Distance from station: JJZ 185km
Ažurirano: 27/10/2021 02:00
Vedro
Vedro
 Pravac vetra calm
Vetar: Tišina
Temperatura: 1°C
Tačka rose: 0°C
Vlažnost: 93%
Pritisak: 1025 hPa
Pregled: Vedro
Vidljivost: greater than 10 km
2021/10/27 00:00 LWSK 270000Z 00000KT CAVOK 01/00 Q1025 NOSIG
 
LYVR - Vrsac, Yugoslavia
Distance from station: SSZ 189km
Ažurirano: 27/10/2021 02:00
Vedro
Vedro
 Pravac vetra varies
Vetar: varies 7 km/h
Temperatura: 10°C
Osećaj hladnoće: 9°C
Tačka rose: 1°C
Vlažnost: 54%
Pritisak: 1026 hPa
Pregled: Vedro
Vidljivost: greater than 10 km
2021/10/27 00:00 LYVR 270000Z AUTO VRB04KT CAVOK 10/01 Q1026
LYUZ - Uzice-Ponikve, Yugoslavia
Distance from station: Z 207km
Ažurirano: 27/10/2021 02:00
Slaba kiša, Showers, Mist, Delimično oblačno
Slaba kiša, Showers, Mist, Delimično oblačno
 Pravac vetra SZ
Vetar: SZ 6 km/h
Temperatura: 1°C
Tačka rose: 0°C
Vlažnost: 93%
Pritisak: 1025 hPa
Pregled: Slaba kiša, Showers, Mist
Oblaci: Delimično oblačno
Vidljivost: 5 km
2021/10/27 00:00 LYUZ 270000Z AUTO 31003KT 270V330 4600 -SHRA BR NSC 01/M00 Q1025
LYBE - Belgrade/Surcin, Yugoslavia
Distance from station: SZ 209km
Ažurirano: 27/10/2021 02:00
Mist, Delimično oblačno
Mist, Delimično oblačno
 Pravac vetra JZ
Vetar: JZ 7 km/h
Temperatura: 5°C
Osećaj hladnoće: 3°C
Tačka rose: 4°C
Vlažnost: 93%
Pritisak: 1026 hPa
Pregled: Mist
Oblaci: Delimično oblačno
Vidljivost: 5 km
2021/10/27 00:00 LYBE 270000Z 22004KT 5000 BR NSC 05/04 Q1026 NOSIG
 
LYBT - Batajnica, Yugoslavia
Distance from station: SZ 219km
Ažurirano: 27/10/2021 02:00
Mist, Delimično oblačno
Mist, Delimično oblačno
 Pravac vetra JJI
Vetar: JJI 6 km/h
Temperatura: 3°C
Tačka rose: 3°C
Vlažnost: 100%
Pritisak: 1026 hPa
Pregled: Mist
Oblaci: Delimično oblačno
Vidljivost: 4 km
2021/10/27 00:00 LYBT 270000Z 16003KT 4000 BR NSC 03/03 Q1026 NOSIG
LRTR - Timisoara/Giarma, Romania
Distance from station: SSZ 260km
Ažurirano: 27/10/2021 02:00
Vedro
Vedro
 Pravac vetra ISI
Vetar: ISI 7 km/h
Temperatura: 0°C
Osećaj hladnoće: -3°C
Tačka rose: 0°C
Vlažnost: 100%
Pritisak: 1026 hPa
Pregled: Vedro
Vidljivost: greater than 10 km
2021/10/27 00:00 LRTR 270000Z 06004KT CAVOK 00/00 Q1026
LBPD - Plovdiv, Bulgaria
Distance from station: JI 263km
Ažurirano: 27/10/2021 02:00
Oblačno
Oblačno
 Pravac vetra ZSZ
Vetar: ZSZ 7 km/h
Temperatura: 7°C
Osećaj hladnoće: 6°C
Tačka rose: 3°C
Vlažnost: 76%
Pritisak: 1025 hPa
Oblaci: Oblačno
Vidljivost: 10 km
Cloud details: Oblačno 1219 m
2021/10/27 00:00 LBPD 270000Z AUTO 29004KT 260V320 9999 OVC040/// 07/03 Q1025
 
LYPG - Podgorica(Titogr, Yugoslavia
Distance from station: ZJZ 278km
Ažurirano: 27/10/2021 02:00
Vedro
Vedro
 Pravac vetra SSZ
Vetar: SSZ 7 km/h
Temperatura: 8°C
Osećaj hladnoće: 7°C
Tačka rose: 4°C
Vlažnost: 76%
Pritisak: 1021 hPa
Pregled: Vedro
Vidljivost: greater than 10 km
2021/10/27 00:00 LYPG 270000Z 34004KT CAVOK 08/04 Q1021 NOSIG
LBGO - Gorna Orechovist, Bulgaria
Distance from station: I 285km
Ažurirano: 27/10/2021 02:00
Vedro
Vedro
 Pravac vetra calm
Vetar: Tišina
Temperatura: 1°C
Tačka rose: 1°C
Vlažnost: 100%
Pritisak: 1025 hPa
Oblaci: Vedro
Vidljivost: 10 km
2021/10/27 00:00 LBGO 270000Z AUTO 00000KT 9999 NCD 01/01 Q1025
LRSB - Sibiu/Turnisor, Romania
Distance from station: SSI 286km
Ažurirano: 27/10/2021 02:00
Vedro
Vedro
 Pravac vetra ISI
Vetar: ISI 6 km/h
Temperatura: 0°C
Tačka rose: -2°C
Vlažnost: 87%
Pritisak: 1025 hPa
Pregled: Vedro
Vidljivost: greater than 10 km
2021/10/27 00:00 LRSB 270000Z 06003KT 360V070 CAVOK M00/M02 Q1025
 
LWOH - Ohrid, Macedonia
Distance from station: JJZ 292km
Ažurirano: 26/10/2021 21:00
NOT Current
Few Clouds
Few Clouds
 Pravac vetra SSZ
Vetar: SSZ 4 km/h
Temperatura: 4°C
Tačka rose: 1°C
Vlažnost: 81%
Pritisak: 1022 hPa
Oblaci: Few Clouds
Vidljivost: 10 km
Cloud details: Few Clouds 1524 m
2021/10/26 19:00 LWOH 261900Z 34002KT 9999 FEW050 04/01 Q1022
LQTZ - Tuzla, Yugoslavia
Distance from station: ZSZ 298km
Ažurirano: 27/10/2021 02:00
Mist, Delimično oblačno
Mist, Delimično oblačno
 Pravac vetra varies
Vetar: varies 4 km/h
Temperatura: 5°C
Tačka rose: 5°C
Vlažnost: 100%
Pritisak: 1026 hPa
Pregled: Mist
Oblaci: Delimično oblačno
Vidljivost: 3 km
2021/10/27 00:00 LQTZ 270000Z VRB02KT 3000 BR NSC 05/05 Q1026
LRAR - Arad, Romania
Distance from station: SSZ 301km
Ažurirano: 27/10/2021 02:00
Vedro
Vedro
 Pravac vetra varies
Vetar: varies 2 km/h
Temperatura: 2°C
Tačka rose: -1°C
Vlažnost: 81%
Pritisak: 1026 hPa
Pregled: Vedro
Vidljivost: greater than 10 km
2021/10/27 00:00 LRAR 270000Z VRB01KT CAVOK 02/M01 Q1026
 
LYTV - Tivat, Yugoslavia
Distance from station: ZJZ 315km
Ažurirano: 26/10/2021 18:30
NOT Current
Vedro
Vedro
 Pravac vetra varies
Vetar: varies 4 km/h
Temperatura: 13°C
Tačka rose: 12°C
Vlažnost: 94%
Pritisak: 1019 hPa
Pregled: Vedro
Vidljivost: greater than 10 km
2021/10/26 16:30 LYTV 261630Z VRB02KT CAVOK 13/12 Q1019 NOSIG
LATI - Tirana, Albania
Distance from station: JZ 316km
Ažurirano: 27/10/2021 01:50
Vedro
Vedro
 Pravac vetra varies
Vetar: varies 2 km/h
Temperatura: 7°C
Tačka rose: 4°C
Vlažnost: 81%
Pritisak: 1020 hPa
Pregled: Vedro
Vidljivost: greater than 10 km
2021/10/26 23:50 LATI 262350Z VRB01KT CAVOK 07/04 Q1020 NOSIG
LQBK - Banja Luka, Yugoslavia
Distance from station: SZ 426km
Ažurirano: 27/10/2021 02:00
Delimično oblačno
Delimično oblačno
 Pravac vetra varies
Vetar: varies 4 km/h
Temperatura: 3°C
Tačka rose: 3°C
Vlažnost: 100%
Pritisak: 1026 hPa
Oblaci: Delimično oblačno
Vidljivost: 7 km
2021/10/27 00:00 LQBK 270000Z VRB02KT 7000 NSC 03/03 Q1026 NOSIG
 
LDOS - Osijek, Croatia
Distance from station: SSZ 360km
Ažurirano: 27/10/2021 02:00
Mist, Delimično oblačno
Mist, Delimično oblačno
 Pravac vetra Z
Vetar: Z 11 km/h
Temperatura: 2°C
Osećaj hladnoće: -1°C
Tačka rose: 2°C
Vlažnost: 100%
Pritisak: 1026 hPa
Pregled: Mist
Oblaci: Delimično oblačno
Vidljivost: 4 km
2021/10/27 00:00 LDOS 270000Z 27006KT 4000 BR NSC 02/02 Q1026
LDDU - Dubrovnik-Cilipi, Croatia
Distance from station: JZ 352km
Ažurirano: 27/10/2021 02:00
Vedro
Vedro
 Pravac vetra SI
Vetar: SI 11 km/h
Temperatura: 14°C
Tačka rose: 6°C
Vlažnost: 59%
Pritisak: 1020 hPa
Pregled: Vedro
Vidljivost: greater than 10 km
2021/10/27 00:00 LDDU 270000Z 05006KT 350V100 CAVOK 14/06 Q1020
LQMO - Mostar Airport, Bosnia-Herzegovina
Distance from station: Z 359km
Ažurirano: 27/10/2021 02:00
Vedro
Vedro
 Pravac vetra JI
Vetar: JI 7 km/h
Temperatura: 5°C
Osećaj hladnoće: 3°C
Tačka rose: 3°C
Vlažnost: 87%
Pritisak: 1020 hPa
Pregled: Vedro
Vidljivost: greater than 10 km
2021/10/27 00:00 LQMO 270000Z 13004KT 110V170 CAVOK 05/03 Q1020
 
LQSA - Sarajevo/Butmir, Yugoslavia
Distance from station: Z 311km
Ažurirano: 27/10/2021 02:00
Mist, Delimično oblačno
Mist, Delimično oblačno
 Pravac vetra varies
Vetar: varies 2 km/h
Temperatura: 1°C
Tačka rose: 1°C
Vlažnost: 100%
Pritisak: 1025 hPa
Pregled: Mist
Oblaci: Delimično oblačno
Vidljivost: 5 km
2021/10/27 00:00 LQSA 270000Z VRB01KT 5000 BR NSC 01/01 Q1025
LDSP - Split/Kastel Sta, Croatia
Distance from station: Z 468km
Ažurirano: 27/10/2021 02:00
Vedro
Vedro
 Pravac vetra SSZ
Vetar: SSZ 13 km/h
Temperatura: 13°C
Tačka rose: 3°C
Vlažnost: 51%
Pritisak: 1021 hPa
Pregled: Vedro
Vidljivost: greater than 10 km
2021/10/27 00:00 LDSP 270000Z AUTO 33007KT 300V360 CAVOK 13/03 Q1021
LDZD - Zadar/Zemunik, Croatia
Distance from station: ZSZ 567km
Ažurirano: 27/10/2021 02:00
Vedro
Vedro
 Pravac vetra Z
Vetar: Z 6 km/h
Temperatura: 8°C
Tačka rose: 3°C
Vlažnost: 71%
Pritisak: 1022 hPa
Pregled: Vedro
Vidljivost: greater than 10 km
2021/10/27 00:00 LDZD 270000Z 26003KT 160V300 CAVOK 08/03 Q1022
 
LDZA - Zagreb/Pleso, Croatia
Distance from station: SZ 555km
Ažurirano: 27/10/2021 02:00
Shallow fog, Delimično oblačno
Shallow fog, Delimično oblačno
 Pravac vetra JJZ
Vetar: JJZ 4 km/h
Temperatura: 3°C
Tačka rose: 2°C
Vlažnost: 93%
Pritisak: 1026 hPa
Pregled: Shallow Fog
Oblaci: Delimično oblačno
Vidljivost: 10 km
2021/10/27 00:00 LDZA 270000Z 21002KT 9999 MIFG NSC 03/02 Q1026 NOSIG
LJCE - Cerklje, Slovenia
Distance from station: SZ 680km
Ažurirano: 27/10/2021 02:00
Mist, Vedro
Mist, Vedro
 Pravac vetra ZJZ
Vetar: ZJZ 2 km/h
Temperatura: 4°C
Tačka rose: 4°C
Vlažnost: 100%
Pritisak: 1027 hPa
Pregled: Mist
Oblaci: Vedro
Vidljivost: 1 km
2021/10/27 00:00 LJCE 270000Z AUTO 24001KT 1300 R09/0800N BR NCD 04/04 Q1027
LJMB - Maribor, Slovenia
Distance from station: SZ 616km
Ažurirano: 27/10/2021 02:00
Mist, Few clouds
Mist, Few clouds
 Pravac vetra SSZ
Vetar: SSZ 6 km/h
Temperatura: 3°C
Tačka rose: 2°C
Vlažnost: 93%
Pritisak: 1027 hPa
Pregled: Mist
Oblaci: Few Clouds
Vidljivost: 4 km
Cloud details: Few Clouds 91 m
2021/10/27 00:00 LJMB 270000Z AUTO 33003KT 3800 BR FEW003/// 03/02 Q1027
 
LJLJ - Ljubljana/Brnik, Slovenia
Distance from station: SZ 671km
Ažurirano: 27/10/2021 02:00
Shallow fog, Delimično oblačno
Shallow fog, Delimično oblačno
 Pravac vetra varies
Vetar: varies 2 km/h
Temperatura: -1°C
Tačka rose: -1°C
Vlažnost: 100%
Pritisak: 1027 hPa
Pregled: Shallow Fog
Oblaci: Delimično oblačno
Vidljivost: 10 km
2021/10/27 00:00 LJLJ 270000Z VRB01KT 9999 MIFG NSC M01/M01 Q1027 NOSIG
LDRI - Rijeka, Croatia
Distance from station: SZ 650km
Ažurirano: 27/10/2021 02:00
Delimično oblačno
Delimično oblačno
 Pravac vetra varies
Vetar: varies 6 km/h
Temperatura: 15°C
Tačka rose: 3°C
Vlažnost: 45%
Pritisak: 1023 hPa
Oblaci: Delimično oblačno
Vidljivost: 10 km
Cloud details: Delimično oblačno 1433 m
2021/10/27 00:00 LDRI 270000Z VRB03KT 9999 SCT047 15/03 Q1023
LDPL - Pula, Croatia
Distance from station: ZSZ 686km
Ažurirano: 27/10/2021 02:00
Vedro
Vedro
 Pravac vetra varies
Vetar: varies 6 km/h
Temperatura: 7°C
Tačka rose: 5°C
Vlažnost: 87%
Pritisak: 1023 hPa
Pregled: Vedro
Vidljivost: greater than 10 km
2021/10/27 00:00 LDPL 270000Z VRB03KT CAVOK 07/05 Q1023
 
LJPZ - Portorož, Slovenia
Distance from station: ZSZ 720km
Ažurirano: 27/10/2021 02:00
Vedro
Vedro
 Pravac vetra JI
Vetar: JI 7 km/h
Temperatura: 7°C
Osećaj hladnoće: 6°C
Tačka rose: 4°C
Vlažnost: 81%
Pritisak: 1024 hPa
Oblaci: Vedro
Vidljivost: 10 km
2021/10/27 00:00 LJPZ 270000Z AUTO 13004KT 110V190 9999 NCD 07/04 Q1024